sensor_id;sensor_type;location;lat;lon;timestamp;pressure;altitude;pressure_sealevel;temperature;humidity
40490;BME280;26196;52.302;10.572;2023-06-14T00:02:51;100811.19;;;24.00;31.46
40490;BME280;26196;52.302;10.572;2023-06-14T00:06:52;100818.47;;;23.98;31.30
40490;BME280;26196;52.302;10.572;2023-06-14T00:10:52;100825.53;;;23.99;31.00
40490;BME280;26196;52.302;10.572;2023-06-14T00:14:53;100820.91;;;23.90;31.07
40490;BME280;26196;52.302;10.572;2023-06-14T00:18:53;100829.78;;;23.90;31.16
40490;BME280;26196;52.302;10.572;2023-06-14T00:22:55;100833.31;;;23.91;31.42
40490;BME280;26196;52.302;10.572;2023-06-14T00:26:55;100831.09;;;23.85;31.14
40490;BME280;26196;52.302;10.572;2023-06-14T00:30:56;100815.41;;;23.80;31.02
40490;BME280;26196;52.302;10.572;2023-06-14T00:34:56;100831.25;;;23.83;31.23
40490;BME280;26196;52.302;10.572;2023-06-14T00:38:56;100827.84;;;23.81;30.79
40490;BME280;26196;52.302;10.572;2023-06-14T00:42:57;100820.28;;;23.75;31.16
40490;BME280;26196;52.302;10.572;2023-06-14T00:46:57;100829.28;;;23.74;31.18
40490;BME280;26196;52.302;10.572;2023-06-14T00:50:57;100827.56;;;23.73;31.07
40490;BME280;26196;52.302;10.572;2023-06-14T00:54:58;100823.28;;;23.70;30.86
40490;BME280;26196;52.302;10.572;2023-06-14T00:58:59;100830.56;;;23.68;31.14
40490;BME280;26196;52.302;10.572;2023-06-14T01:03:01;100833.59;;;23.64;31.55
40490;BME280;26196;52.302;10.572;2023-06-14T01:07:15;100829.81;;;23.66;31.18
40490;BME280;26196;52.302;10.572;2023-06-14T01:11:20;100833.09;;;23.58;31.08
40490;BME280;26196;52.302;10.572;2023-06-14T01:15:22;100825.22;;;23.57;30.97
40490;BME280;26196;52.302;10.572;2023-06-14T01:19:23;100818.50;;;23.51;31.22
40490;BME280;26196;52.302;10.572;2023-06-14T01:23:25;100812.88;;;23.43;31.12
40490;BME280;26196;52.302;10.572;2023-06-14T01:27:32;100831.00;;;23.51;31.52
40490;BME280;26196;52.302;10.572;2023-06-14T01:31:34;100792.91;;;23.25;31.42
40490;BME280;26196;52.302;10.572;2023-06-14T01:35:43;100819.94;;;23.44;31.50
40490;BME280;26196;52.302;10.572;2023-06-14T01:39:44;100825.03;;;23.36;31.37
40490;BME280;26196;52.302;10.572;2023-06-14T01:43:45;100826.72;;;23.37;31.47
40490;BME280;26196;52.302;10.572;2023-06-14T01:47:46;100839.22;;;23.36;31.22
40490;BME280;26196;52.302;10.572;2023-06-14T01:55:47;100846.97;;;23.28;31.38
40490;BME280;26196;52.302;10.572;2023-06-14T01:59:48;100839.31;;;23.24;31.15
40490;BME280;26196;52.302;10.572;2023-06-14T02:03:49;100844.66;;;23.24;31.05
40490;BME280;26196;52.302;10.572;2023-06-14T02:07:51;100832.72;;;23.17;31.06
40490;BME280;26196;52.302;10.572;2023-06-14T02:11:51;100848.88;;;23.15;31.05
40490;BME280;26196;52.302;10.572;2023-06-14T02:15:52;100845.31;;;23.14;30.99
40490;BME280;26196;52.302;10.572;2023-06-14T02:19:54;100840.22;;;23.11;31.03
40490;BME280;26196;52.302;10.572;2023-06-14T02:23:56;100831.94;;;23.03;31.03
40490;BME280;26196;52.302;10.572;2023-06-14T02:27:56;100838.84;;;23.06;31.12
40490;BME280;26196;52.302;10.572;2023-06-14T02:31:56;100837.50;;;23.00;30.70
40490;BME280;26196;52.302;10.572;2023-06-14T02:35:57;100848.19;;;23.00;30.99
40490;BME280;26196;52.302;10.572;2023-06-14T02:39:58;100850.09;;;22.98;30.94
40490;BME280;26196;52.302;10.572;2023-06-14T02:43:58;100859.09;;;22.97;30.87
40490;BME280;26196;52.302;10.572;2023-06-14T02:48:00;100860.88;;;22.97;30.75
40490;BME280;26196;52.302;10.572;2023-06-14T02:52:00;100846.69;;;22.83;30.92
40490;BME280;26196;52.302;10.572;2023-06-14T02:56:00;100843.41;;;22.80;30.92
40490;BME280;26196;52.302;10.572;2023-06-14T03:00:01;100857.50;;;22.82;30.78
40490;BME280;26196;52.302;10.572;2023-06-14T03:04:01;100866.97;;;22.86;30.67
40490;BME280;26196;52.302;10.572;2023-06-14T03:08:03;100871.06;;;22.79;31.70
40490;BME280;26196;52.302;10.572;2023-06-14T03:12:04;100876.41;;;22.79;31.97
40490;BME280;26196;52.302;10.572;2023-06-14T03:16:07;100874.59;;;22.79;32.25
40490;BME280;26196;52.302;10.572;2023-06-14T03:20:07;100887.09;;;22.79;32.18
40490;BME280;26196;52.302;10.572;2023-06-14T03:24:08;100885.13;;;22.81;32.89
40490;BME280;26196;52.302;10.572;2023-06-14T03:28:09;100898.72;;;22.78;33.71
40490;BME280;26196;52.302;10.572;2023-06-14T03:32:10;100893.59;;;22.75;33.60
40490;BME280;26196;52.302;10.572;2023-06-14T03:36:10;100887.00;;;22.67;33.40
40490;BME280;26196;52.302;10.572;2023-06-14T03:40:12;100910.69;;;22.72;32.60
40490;BME280;26196;52.302;10.572;2023-06-14T03:44:15;100906.75;;;22.65;33.59
40490;BME280;26196;52.302;10.572;2023-06-14T03:48:15;100921.97;;;22.76;33.15
40490;BME280;26196;52.302;10.572;2023-06-14T03:52:16;100933.84;;;22.71;33.57
40490;BME280;26196;52.302;10.572;2023-06-14T03:56:17;100930.44;;;22.69;34.10
40490;BME280;26196;52.302;10.572;2023-06-14T04:00:18;100924.47;;;22.66;33.84
40490;BME280;26196;52.302;10.572;2023-06-14T04:04:18;100912.31;;;22.62;34.47
40490;BME280;26196;52.302;10.572;2023-06-14T04:08:18;100931.72;;;22.64;34.12
40490;BME280;26196;52.302;10.572;2023-06-14T04:12:19;100938.88;;;22.63;33.60
40490;BME280;26196;52.302;10.572;2023-06-14T04:16:20;100930.22;;;22.60;33.73
40490;BME280;26196;52.302;10.572;2023-06-14T04:20:20;100932.28;;;22.56;34.06
40490;BME280;26196;52.302;10.572;2023-06-14T04:24:22;100927.16;;;22.53;33.99
40490;BME280;26196;52.302;10.572;2023-06-14T04:28:23;100933.25;;;22.55;33.85
40490;BME280;26196;52.302;10.572;2023-06-14T04:32:27;100936.84;;;22.54;34.58
40490;BME280;26196;52.302;10.572;2023-06-14T04:36:29;100932.72;;;22.50;34.40
40490;BME280;26196;52.302;10.572;2023-06-14T04:40:32;100934.84;;;22.45;34.08
40490;BME280;26196;52.302;10.572;2023-06-14T04:44:33;100929.72;;;22.42;33.37
40490;BME280;26196;52.302;10.572;2023-06-14T04:48:34;100931.44;;;22.43;33.05
40490;BME280;26196;52.302;10.572;2023-06-14T04:52:35;100938.47;;;22.44;33.09
40490;BME280;26196;52.302;10.572;2023-06-14T04:56:36;100932.38;;;22.42;33.69
40490;BME280;26196;52.302;10.572;2023-06-14T05:00:37;100908.94;;;22.21;33.77
40490;BME280;26196;52.302;10.572;2023-06-14T05:04:38;100939.66;;;22.40;33.65
40490;BME280;26196;52.302;10.572;2023-06-14T05:08:40;100955.66;;;22.40;33.61
40490;BME280;26196;52.302;10.572;2023-06-14T05:12:40;100942.94;;;22.31;33.49
40490;BME280;26196;52.302;10.572;2023-06-14T05:16:43;100953.41;;;22.34;33.06
40490;BME280;26196;52.302;10.572;2023-06-14T05:20:44;100960.47;;;22.35;33.19
40490;BME280;26196;52.302;10.572;2023-06-14T05:24:44;100964.19;;;22.32;33.31
40490;BME280;26196;52.302;10.572;2023-06-14T05:28:46;100969.84;;;22.27;34.22
40490;BME280;26196;52.302;10.572;2023-06-14T05:32:46;100969.84;;;22.27;33.42
40490;BME280;26196;52.302;10.572;2023-06-14T05:36:47;100970.69;;;22.28;33.85
40490;BME280;26196;52.302;10.572;2023-06-14T05:40:47;100980.41;;;22.29;34.03
40490;BME280;26196;52.302;10.572;2023-06-14T05:44:47;100980.28;;;22.31;34.42
40490;BME280;26196;52.302;10.572;2023-06-14T05:48:48;100983.16;;;22.27;34.15
40490;BME280;26196;52.302;10.572;2023-06-14T05:52:48;100976.31;;;22.23;34.26
40490;BME280;26196;52.302;10.572;2023-06-14T05:56:49;100971.75;;;22.25;34.52
40490;BME280;26196;52.302;10.572;2023-06-14T06:00:49;100973.66;;;22.23;34.39
40490;BME280;26196;52.302;10.572;2023-06-14T06:04:50;100986.06;;;22.24;35.14
40490;BME280;26196;52.302;10.572;2023-06-14T06:08:51;100972.06;;;22.21;34.46
40490;BME280;26196;52.302;10.572;2023-06-14T06:12:51;100983.25;;;22.26;34.40
40490;BME280;26196;52.302;10.572;2023-06-14T06:16:53;100980.72;;;22.24;34.57
40490;BME280;26196;52.302;10.572;2023-06-14T06:20:54;100984.13;;;22.26;35.01
40490;BME280;26196;52.302;10.572;2023-06-14T06:24:55;100992.22;;;22.25;34.43
40490;BME280;26196;52.302;10.572;2023-06-14T06:28:56;100984.22;;;22.25;34.52
40490;BME280;26196;52.302;10.572;2023-06-14T06:32:57;100992.13;;;22.26;35.25
40490;BME280;26196;52.302;10.572;2023-06-14T06:36:57;101002.28;;;22.21;34.76
40490;BME280;26196;52.302;10.572;2023-06-14T06:40:58;101010.06;;;22.24;35.02
40490;BME280;26196;52.302;10.572;2023-06-14T06:44:58;101006.00;;;22.19;35.16
40490;BME280;26196;52.302;10.572;2023-06-14T06:48:59;101008.22;;;22.25;35.28
40490;BME280;26196;52.302;10.572;2023-06-14T06:53:00;101013.88;;;22.20;35.67
40490;BME280;26196;52.302;10.572;2023-06-14T06:57:00;101011.97;;;22.22;35.38
40490;BME280;26196;52.302;10.572;2023-06-14T07:01:01;101022.41;;;22.25;35.37
40490;BME280;26196;52.302;10.572;2023-06-14T07:05:02;101024.31;;;22.23;35.28
40490;BME280;26196;52.302;10.572;2023-06-14T07:09:02;101020.94;;;22.21;35.67
40490;BME280;26196;52.302;10.572;2023-06-14T07:13:04;101027.97;;;22.22;35.71
40490;BME280;26196;52.302;10.572;2023-06-14T07:17:05;101025.38;;;22.21;35.78
40490;BME280;26196;52.302;10.572;2023-06-14T07:21:06;101040.53;;;22.20;35.83
40490;BME280;26196;52.302;10.572;2023-06-14T07:25:08;101030.63;;;22.22;35.92
40490;BME280;26196;52.302;10.572;2023-06-14T07:29:08;101033.28;;;22.22;35.75
40490;BME280;26196;52.302;10.572;2023-06-14T07:33:09;101034.13;;;22.23;35.57
40490;BME280;26196;52.302;10.572;2023-06-14T07:37:10;101029.09;;;22.18;35.99
40490;BME280;26196;52.302;10.572;2023-06-14T07:41:10;101027.13;;;22.22;35.70
40490;BME280;26196;52.302;10.572;2023-06-14T07:45:13;101028.94;;;22.21;35.64
40490;BME280;26196;52.302;10.572;2023-06-14T07:49:14;101022.53;;;22.24;35.97
40490;BME280;26196;52.302;10.572;2023-06-14T07:53:14;101025.38;;;22.21;35.92
40490;BME280;26196;52.302;10.572;2023-06-14T07:57:15;101018.16;;;22.23;36.13
40490;BME280;26196;52.302;10.572;2023-06-14T08:01:15;101027.75;;;22.25;35.96
40490;BME280;26196;52.302;10.572;2023-06-14T08:05:17;101019.75;;;22.25;35.84
40490;BME280;26196;52.302;10.572;2023-06-14T08:09:17;101021.25;;;22.30;35.88
40490;BME280;26196;52.302;10.572;2023-06-14T08:13:18;101015.94;;;22.30;36.32
40490;BME280;26196;52.302;10.572;2023-06-14T08:17:18;101017.53;;;22.32;35.75
40490;BME280;26196;52.302;10.572;2023-06-14T08:21:18;101018.59;;;22.30;36.14
40490;BME280;26196;52.302;10.572;2023-06-14T08:25:19;101020.81;;;22.36;35.92
40490;BME280;26196;52.302;10.572;2023-06-14T08:29:19;101019.13;;;22.35;35.80
40490;BME280;26196;52.302;10.572;2023-06-14T08:33:21;101007.81;;;22.31;35.59
40490;BME280;26196;52.302;10.572;2023-06-14T08:37:21;101014.75;;;22.34;35.80
40490;BME280;26196;52.302;10.572;2023-06-14T08:41:22;101028.53;;;22.40;35.89
40490;BME280;26196;52.302;10.572;2023-06-14T08:45:25;101019.47;;;22.43;35.94
40490;BME280;26196;52.302;10.572;2023-06-14T08:49:26;101014.97;;;22.43;36.11
40490;BME280;26196;52.302;10.572;2023-06-14T08:53:28;101020.31;;;22.43;35.87
40490;BME280;26196;52.302;10.572;2023-06-14T08:57:32;101022.88;;;22.45;36.07
40490;BME280;26196;52.302;10.572;2023-06-14T09:01:34;101013.69;;;22.49;36.00
40490;BME280;26196;52.302;10.572;2023-06-14T09:05:35;101019.88;;;22.49;35.88
40490;BME280;26196;52.302;10.572;2023-06-14T09:09:39;101011.78;;;22.51;35.83
40490;BME280;26196;52.302;10.572;2023-06-14T09:13:40;101024.03;;;22.54;35.85
40490;BME280;26196;52.302;10.572;2023-06-14T09:17:42;101016.78;;;22.56;35.97
40490;BME280;26196;52.302;10.572;2023-06-14T09:21:47;101016.78;;;22.56;35.98
40490;BME280;26196;52.302;10.572;2023-06-14T09:25:47;101009.19;;;22.62;36.08
40490;BME280;26196;52.302;10.572;2023-06-14T09:29:47;101012.53;;;22.66;36.39
40490;BME280;26196;52.302;10.572;2023-06-14T09:33:49;101010.72;;;22.66;36.07
40490;BME280;26196;52.302;10.572;2023-06-14T09:37:49;101015.72;;;22.71;36.56
40490;BME280;26196;52.302;10.572;2023-06-14T09:41:50;101016.44;;;22.73;36.31
40490;BME280;26196;52.302;10.572;2023-06-14T09:45:51;101016.13;;;22.78;36.54
40490;BME280;26196;52.302;10.572;2023-06-14T09:49:51;101009.84;;;22.79;36.26
40490;BME280;26196;52.302;10.572;2023-06-14T09:53:59;101010.47;;;22.82;36.08
40490;BME280;26196;52.302;10.572;2023-06-14T09:58:06;100997.03;;;22.84;36.17
40490;BME280;26196;52.302;10.572;2023-06-14T10:02:07;101000.25;;;22.89;36.08
40490;BME280;26196;52.302;10.572;2023-06-14T10:06:09;101003.84;;;22.88;36.22
40490;BME280;26196;52.302;10.572;2023-06-14T10:10:10;101004.28;;;22.94;35.97
40490;BME280;26196;52.302;10.572;2023-06-14T10:14:12;100988.06;;;22.98;35.95
40490;BME280;26196;52.302;10.572;2023-06-14T10:18:19;100996.16;;;22.96;35.82
40490;BME280;26196;52.302;10.572;2023-06-14T10:22:33;101001.09;;;23.02;35.92
40490;BME280;26196;52.302;10.572;2023-06-14T10:26:50;101005.38;;;23.05;35.91
40490;BME280;26196;52.302;10.572;2023-06-14T10:31:04;100997.44;;;23.03;35.89
40490;BME280;26196;52.302;10.572;2023-06-14T10:35:05;100998.19;;;23.05;35.83
40490;BME280;26196;52.302;10.572;2023-06-14T10:39:15;100994.47;;;23.08;35.78
40490;BME280;26196;52.302;10.572;2023-06-14T10:43:23;100990.81;;;23.09;35.78
40490;BME280;26196;52.302;10.572;2023-06-14T10:47:31;100991.47;;;23.12;35.95
40490;BME280;26196;52.302;10.572;2023-06-14T10:51:39;100981.63;;;23.13;35.91
40490;BME280;26196;52.302;10.572;2023-06-14T10:55:45;100971.78;;;23.13;35.78
40490;BME280;26196;52.302;10.572;2023-06-14T10:59:46;100967.91;;;23.18;35.73
40490;BME280;26196;52.302;10.572;2023-06-14T11:03:51;100973.91;;;23.21;35.64
40490;BME280;26196;52.302;10.572;2023-06-14T11:12:10;100965.56;;;23.26;35.91
40490;BME280;26196;52.302;10.572;2023-06-14T11:16:16;100953.69;;;23.30;35.67
40490;BME280;26196;52.302;10.572;2023-06-14T11:20:17;100953.56;;;23.31;35.79
40490;BME280;26196;52.302;10.572;2023-06-14T11:24:19;100965.72;;;23.35;35.80
40490;BME280;26196;52.302;10.572;2023-06-14T11:28:19;100951.75;;;23.32;35.87
40490;BME280;26196;52.302;10.572;2023-06-14T11:32:21;100956.75;;;23.36;35.81
40490;BME280;26196;52.302;10.572;2023-06-14T11:36:21;100960.28;;;23.37;35.72
40490;BME280;26196;52.302;10.572;2023-06-14T11:40:26;100954.31;;;23.33;35.79
40490;BME280;26196;52.302;10.572;2023-06-14T11:44:27;100948.63;;;23.38;35.86
40490;BME280;26196;52.302;10.572;2023-06-14T11:48:40;100945.00;;;23.39;35.78
40490;BME280;26196;52.302;10.572;2023-06-14T11:52:41;100947.44;;;23.42;35.74
40490;BME280;26196;52.302;10.572;2023-06-14T11:56:41;100942.19;;;23.41;35.69
40490;BME280;26196;52.302;10.572;2023-06-14T12:00:42;100945.75;;;23.41;35.83
40490;BME280;26196;52.302;10.572;2023-06-14T12:04:44;100939.44;;;23.42;35.64
40490;BME280;26196;52.302;10.572;2023-06-14T12:08:47;100934.06;;;23.42;35.70
40490;BME280;26196;52.302;10.572;2023-06-14T12:12:49;100931.41;;;23.42;35.70
40490;BME280;26196;52.302;10.572;2023-06-14T12:16:49;100903.78;;;23.30;35.67
40490;BME280;26196;52.302;10.572;2023-06-14T12:20:50;100941.53;;;23.50;35.51
40490;BME280;26196;52.302;10.572;2023-06-14T12:24:51;100938.72;;;23.51;35.32
40490;BME280;26196;52.302;10.572;2023-06-14T12:28:52;100935.94;;;23.53;35.42
40490;BME280;26196;52.302;10.572;2023-06-14T12:32:52;100922.69;;;23.51;35.27
40490;BME280;26196;52.302;10.572;2023-06-14T12:36:53;100929.75;;;23.52;35.23
40490;BME280;26196;52.302;10.572;2023-06-14T12:40:54;100925.03;;;23.56;35.31
40490;BME280;26196;52.302;10.572;2023-06-14T12:44:54;100925.66;;;23.59;35.41
40490;BME280;26196;52.302;10.572;2023-06-14T12:48:55;100922.25;;;23.57;35.62
40490;BME280;26196;52.302;10.572;2023-06-14T12:52:55;100929.28;;;23.58;35.43
40490;BME280;26196;52.302;10.572;2023-06-14T12:56:56;100936.69;;;23.55;35.46
40490;BME280;26196;52.302;10.572;2023-06-14T13:00:56;100926.09;;;23.53;35.63
40490;BME280;26196;52.302;10.572;2023-06-14T13:04:56;100898.59;;;23.40;35.63
40490;BME280;26196;52.302;10.572;2023-06-14T13:09:00;100912.88;;;23.52;35.37
40490;BME280;26196;52.302;10.572;2023-06-14T13:13:01;100930.50;;;23.54;35.67
40490;BME280;26196;52.302;10.572;2023-06-14T13:17:03;100929.25;;;23.47;35.92
40490;BME280;26196;52.302;10.572;2023-06-14T13:21:03;100915.88;;;23.47;35.49
40490;BME280;26196;52.302;10.572;2023-06-14T13:25:04;100918.72;;;23.57;35.34
40490;BME280;26196;52.302;10.572;2023-06-14T13:29:04;100913.50;;;23.55;35.18
40490;BME280;26196;52.302;10.572;2023-06-14T13:33:05;100910.34;;;23.62;35.14
40490;BME280;26196;52.302;10.572;2023-06-14T13:37:05;100912.06;;;23.63;35.14
40490;BME280;26196;52.302;10.572;2023-06-14T13:41:06;100906.47;;;23.66;34.99
40490;BME280;26196;52.302;10.572;2023-06-14T13:45:07;100899.53;;;23.63;35.06
40490;BME280;26196;52.302;10.572;2023-06-14T13:49:08;100901.13;;;23.66;36.01
40490;BME280;26196;52.302;10.572;2023-06-14T13:53:09;100907.09;;;23.69;36.54
40490;BME280;26196;52.302;10.572;2023-06-14T13:57:09;100904.41;;;23.69;36.73
40490;BME280;26196;52.302;10.572;2023-06-14T14:01:12;100900.16;;;23.67;36.67
40490;BME280;26196;52.302;10.572;2023-06-14T14:05:13;100902.63;;;23.70;35.91
40490;BME280;26196;52.302;10.572;2023-06-14T14:09:13;100894.41;;;23.73;35.83
40490;BME280;26196;52.302;10.572;2023-06-14T14:13:14;100890.22;;;23.69;36.25
40490;BME280;26196;52.302;10.572;2023-06-14T14:17:14;100896.28;;;23.71;35.83
40490;BME280;26196;52.302;10.572;2023-06-14T14:21:15;100890.75;;;23.74;35.66
40490;BME280;26196;52.302;10.572;2023-06-14T14:25:15;100888.91;;;23.74;35.43
40490;BME280;26196;52.302;10.572;2023-06-14T14:29:16;100888.81;;;23.76;35.26
40490;BME280;26196;52.302;10.572;2023-06-14T14:33:17;100895.84;;;23.77;35.38
40490;BME280;26196;52.302;10.572;2023-06-14T14:37:17;100895.84;;;23.77;35.92
40490;BME280;26196;52.302;10.572;2023-06-14T14:41:18;100892.22;;;23.78;35.35
40490;BME280;26196;52.302;10.572;2023-06-14T14:45:18;100880.16;;;23.72;35.41
40490;BME280;26196;52.302;10.572;2023-06-14T14:49:18;100889.41;;;23.79;35.40
40490;BME280;26196;52.302;10.572;2023-06-14T14:53:19;100885.78;;;23.80;35.29
40490;BME280;26196;52.302;10.572;2023-06-14T14:57:20;100886.63;;;23.81;35.31
40490;BME280;26196;52.302;10.572;2023-06-14T15:01:21;100886.88;;;23.78;35.44
40490;BME280;26196;52.302;10.572;2023-06-14T15:05:21;100889.31;;;23.81;35.24
40490;BME280;26196;52.302;10.572;2023-06-14T15:09:22;100877.88;;;23.79;35.12
40490;BME280;26196;52.302;10.572;2023-06-14T15:13:22;100879.34;;;23.83;35.02
40490;BME280;26196;52.302;10.572;2023-06-14T15:17:23;100880.06;;;23.85;35.00
40490;BME280;26196;52.302;10.572;2023-06-14T15:21:24;100859.06;;;23.80;34.92
40490;BME280;26196;52.302;10.572;2023-06-14T15:25:28;100870.00;;;23.89;34.93
40490;BME280;26196;52.302;10.572;2023-06-14T15:29:28;100867.69;;;23.84;34.91
40490;BME280;26196;52.302;10.572;2023-06-14T15:33:29;100878.97;;;23.88;34.82
40490;BME280;26196;52.302;10.572;2023-06-14T15:37:29;100885.19;;;23.88;34.97
40490;BME280;26196;52.302;10.572;2023-06-14T15:41:30;100889.56;;;23.89;34.95
40490;BME280;26196;52.302;10.572;2023-06-14T15:45:30;100886.78;;;23.91;34.73
40490;BME280;26196;52.302;10.572;2023-06-14T15:49:31;100885.69;;;23.93;34.88
40490;BME280;26196;52.302;10.572;2023-06-14T15:53:31;100883.97;;;23.92;34.80
40490;BME280;26196;52.302;10.572;2023-06-14T15:57:32;100880.56;;;23.90;34.75
40490;BME280;26196;52.302;10.572;2023-06-14T16:01:32;100884.97;;;23.91;34.82
40490;BME280;26196;52.302;10.572;2023-06-14T16:05:33;100878.88;;;23.89;34.90
40490;BME280;26196;52.302;10.572;2023-06-14T16:09:33;100873.28;;;23.92;34.75
40490;BME280;26196;52.302;10.572;2023-06-14T16:13:34;100871.59;;;23.91;34.74
40490;BME280;26196;52.302;10.572;2023-06-14T16:17:34;100860.91;;;23.91;34.82
40490;BME280;26196;52.302;10.572;2023-06-14T16:21:35;100863.94;;;23.98;34.90
40490;BME280;26196;52.302;10.572;2023-06-14T16:25:36;100862.13;;;23.98;34.83
40490;BME280;26196;52.302;10.572;2023-06-14T16:29:37;100835.72;;;23.83;34.77
40490;BME280;26196;52.302;10.572;2023-06-14T16:33:37;100862.00;;;24.00;34.92
40490;BME280;26196;52.302;10.572;2023-06-14T16:37:37;100863.81;;;23.99;35.03
40490;BME280;26196;52.302;10.572;2023-06-14T16:41:38;100867.47;;;23.98;34.92
40490;BME280;26196;52.302;10.572;2023-06-14T16:45:44;100869.16;;;23.99;34.81
40490;BME280;26196;52.302;10.572;2023-06-14T16:49:45;100852.75;;;23.93;34.64
40490;BME280;26196;52.302;10.572;2023-06-14T16:53:45;100870.16;;;23.98;34.79
40490;BME280;26196;52.302;10.572;2023-06-14T16:57:45;100869.16;;;23.99;35.08
40490;BME280;26196;52.302;10.572;2023-06-14T17:01:50;100872.81;;;23.98;35.02
40490;BME280;26196;52.302;10.572;2023-06-14T17:05:56;100874.53;;;23.99;34.90
40490;BME280;26196;52.302;10.572;2023-06-14T17:09:57;100874.28;;;24.02;35.02
40490;BME280;26196;52.302;10.572;2023-06-14T17:13:57;100878.63;;;24.03;35.23
40490;BME280;26196;52.302;10.572;2023-06-14T17:17:57;100868.94;;;24.02;35.31
40490;BME280;26196;52.302;10.572;2023-06-14T17:21:58;100876.09;;;24.02;35.40
40490;BME280;26196;52.302;10.572;2023-06-14T17:25:58;100877.78;;;24.03;35.04
40490;BME280;26196;52.302;10.572;2023-06-14T17:29:58;100877.19;;;23.99;35.09
40490;BME280;26196;52.302;10.572;2023-06-14T17:34:00;100869.41;;;23.96;35.19
40490;BME280;26196;52.302;10.572;2023-06-14T17:38:00;100876.22;;;24.00;35.21
40490;BME280;26196;52.302;10.572;2023-06-14T17:42:00;100875.13;;;24.03;35.28
40490;BME280;26196;52.302;10.572;2023-06-14T17:46:01;100877.06;;;24.01;35.18
40490;BME280;26196;52.302;10.572;2023-06-14T17:50:01;100871.94;;;23.98;35.24
40490;BME280;26196;52.302;10.572;2023-06-14T17:54:03;100873.53;;;24.00;35.03
40490;BME280;26196;52.302;10.572;2023-06-14T17:58:04;100875.38;;;24.00;35.10
40490;BME280;26196;52.302;10.572;2023-06-14T18:02:05;100878.88;;;24.00;35.25
40490;BME280;26196;52.302;10.572;2023-06-14T18:06:06;100885.72;;;24.05;35.00
40490;BME280;26196;52.302;10.572;2023-06-14T18:10:06;100889.34;;;24.03;35.19
40490;BME280;26196;52.302;10.572;2023-06-14T18:14:07;100893.97;;;24.01;34.89
40490;BME280;26196;52.302;10.572;2023-06-14T18:18:07;100880.13;;;23.96;34.98
40490;BME280;26196;52.302;10.572;2023-06-14T18:22:08;100885.47;;;23.96;35.03
40490;BME280;26196;52.302;10.572;2023-06-14T18:26:08;100895.78;;;24.01;34.78
40490;BME280;26196;52.302;10.572;2023-06-14T18:30:09;100899.31;;;24.01;34.83
40490;BME280;26196;52.302;10.572;2023-06-14T18:34:09;100900.03;;;24.03;35.01
40490;BME280;26196;52.302;10.572;2023-06-14T18:38:11;100899.31;;;24.01;35.06
40490;BME280;26196;52.302;10.572;2023-06-14T18:42:11;100901.00;;;24.02;34.86
40490;BME280;26196;52.302;10.572;2023-06-14T18:46:12;100899.78;;;23.95;34.83
40490;BME280;26196;52.302;10.572;2023-06-14T18:50:12;100906.59;;;23.99;34.70
40490;BME280;26196;52.302;10.572;2023-06-14T18:54:12;100903.78;;;24.01;34.70
40490;BME280;26196;52.302;10.572;2023-06-14T18:58:16;100893.47;;;23.96;34.59
40490;BME280;26196;52.302;10.572;2023-06-14T19:02:18;100899.31;;;24.01;34.69
40490;BME280;26196;52.302;10.572;2023-06-14T19:06:18;100908.06;;;24.03;34.86
40490;BME280;26196;52.302;10.572;2023-06-14T19:10:18;100910.03;;;24.01;34.94
40490;BME280;26196;52.302;10.572;2023-06-14T19:14:19;100901.25;;;23.99;35.05
40490;BME280;26196;52.302;10.572;2023-06-14T19:18:19;100912.56;;;24.03;34.87
40490;BME280;26196;52.302;10.572;2023-06-14T19:22:20;100904.78;;;24.00;35.19
40490;BME280;26196;52.302;10.572;2023-06-14T19:26:20;100913.66;;;24.00;35.48
40490;BME280;26196;52.302;10.572;2023-06-14T19:30:21;100910.88;;;24.02;35.47
40490;BME280;26196;52.302;10.572;2023-06-14T19:34:21;100916.06;;;24.03;35.46
40490;BME280;26196;52.302;10.572;2023-06-14T19:38:21;100917.06;;;24.02;35.64
40490;BME280;26196;52.302;10.572;2023-06-14T19:42:22;100909.75;;;23.93;35.46
40490;BME280;26196;52.302;10.572;2023-06-14T19:46:22;100928.59;;;24.03;35.91
40490;BME280;26196;52.302;10.572;2023-06-14T19:50:25;100933.09;;;24.02;35.96
40490;BME280;26196;52.302;10.572;2023-06-14T19:54:25;100936.75;;;24.01;35.94
40490;BME280;26196;52.302;10.572;2023-06-14T19:58:26;100937.00;;;23.98;35.98
40490;BME280;26196;52.302;10.572;2023-06-14T20:02:26;100941.22;;;24.01;35.74
40490;BME280;26196;52.302;10.572;2023-06-14T20:06:27;100932.25;;;24.02;35.78
40490;BME280;26196;52.302;10.572;2023-06-14T20:10:28;100950.13;;;24.01;35.77
40490;BME280;26196;52.302;10.572;2023-06-14T20:14:28;100951.94;;;24.01;35.76
40490;BME280;26196;52.302;10.572;2023-06-14T20:18:28;100944.88;;;24.00;35.49
40490;BME280;26196;52.302;10.572;2023-06-14T20:22:29;100957.28;;;24.01;35.52
40490;BME280;26196;52.302;10.572;2023-06-14T20:26:29;100955.72;;;23.98;35.58
40490;BME280;26196;52.302;10.572;2023-06-14T20:30:29;100953.03;;;23.98;35.77
40490;BME280;26196;52.302;10.572;2023-06-14T20:34:30;100960.09;;;23.99;35.63
40490;BME280;26196;52.302;10.572;2023-06-14T20:38:30;100964.44;;;24.00;35.14
40490;BME280;26196;52.302;10.572;2023-06-14T20:42:31;100967.50;;;23.96;35.38
40490;BME280;26196;52.302;10.572;2023-06-14T20:46:33;100966.63;;;23.95;35.45
40490;BME280;26196;52.302;10.572;2023-06-14T20:50:35;100965.03;;;23.93;35.39
40490;BME280;26196;52.302;10.572;2023-06-14T20:54:35;100955.91;;;23.84;35.66